createdAt,value
2022-11-01T00:00:24.056Z,14.03
2022-11-01T00:05:28.378Z,14.06
2022-11-01T00:10:31.307Z,14.08
2022-11-01T00:15:34.516Z,14.12
2022-11-01T00:20:38.836Z,14.22
2022-11-01T00:25:41.841Z,14.32
2022-11-01T00:30:44.870Z,14.44
2022-11-01T00:35:49.116Z,14.57
2022-11-01T00:40:52.142Z,14.78
2022-11-01T00:45:55.175Z,14.90
2022-11-01T00:50:59.702Z,14.97
2022-11-01T00:56:02.842Z,14.98
2022-11-01T01:01:06.068Z,15.05
2022-11-01T01:06:10.506Z,15.10
2022-11-01T01:11:13.847Z,15.20
2022-11-01T01:16:16.967Z,15.24
2022-11-01T01:21:21.602Z,15.26
2022-11-01T01:26:24.509Z,15.38
2022-11-01T01:31:28.213Z,15.44
2022-11-01T01:36:32.555Z,15.52
2022-11-01T01:41:53.271Z,15.63
2022-11-01T01:46:56.351Z,15.72
2022-11-01T01:52:00.755Z,15.66
2022-11-01T01:57:04.287Z,15.71
2022-11-01T02:02:08.308Z,15.82
2022-11-01T02:07:13.181Z,15.87
2022-11-01T02:12:16.295Z,15.90
2022-11-01T02:17:26.348Z,15.82
2022-11-01T02:22:52.790Z,15.88
2022-11-01T02:28:11.576Z,15.88
2022-11-01T02:33:27.786Z,15.94
2022-11-01T02:38:36.778Z,15.91
2022-11-01T02:43:47.968Z,15.85
2022-11-01T02:48:53.296Z,15.84
2022-11-01T02:53:56.179Z,15.84
2022-11-01T02:58:59.311Z,15.92
2022-11-01T03:04:04.437Z,15.92
2022-11-01T03:09:11.685Z,15.96
2022-11-01T03:14:24.744Z,16.01
2022-11-01T03:19:43.404Z,15.98
2022-11-01T03:24:53.010Z,15.76
2022-11-01T03:30:02.305Z,15.59
2022-11-01T03:35:11.583Z,15.38
2022-11-01T03:40:17.820Z,15.20
2022-11-01T03:45:25.454Z,15.12
2022-11-01T03:50:31.102Z,15.07
2022-11-01T03:55:34.022Z,15.07
2022-11-01T04:00:39.115Z,15.01
2022-11-01T04:05:44.120Z,14.93
2022-11-01T04:10:47.028Z,14.87
2022-11-01T04:16:07.669Z,14.84
2022-11-01T04:21:15.148Z,14.72
2022-11-01T04:26:20.227Z,14.68
2022-11-01T04:31:23.628Z,14.57
2022-11-01T04:36:28.646Z,14.49
2022-11-01T04:41:31.612Z,14.40
2022-11-01T04:46:34.866Z,14.31
2022-11-01T04:51:41.572Z,14.23
2022-11-01T04:56:44.861Z,14.08
2022-11-01T05:01:47.910Z,13.97
2022-11-01T05:06:52.632Z,13.90
2022-11-01T05:11:55.498Z,13.84
2022-11-01T05:16:59.167Z,13.77
2022-11-01T05:22:03.498Z,13.70
2022-11-01T05:27:06.570Z,13.67
2022-11-01T05:32:09.985Z,13.64
2022-11-01T05:37:15.858Z,13.64
2022-11-01T05:42:18.785Z,13.61
2022-11-01T05:47:21.837Z,13.55
2022-11-01T05:52:26.162Z,13.53
2022-11-01T05:57:33.292Z,13.49
2022-11-01T06:02:36.742Z,13.40
2022-11-01T06:07:41.120Z,13.34
2022-11-01T06:12:44.045Z,13.26
2022-11-01T06:17:47.372Z,13.18
2022-11-01T06:22:51.877Z,13.07
2022-11-01T06:27:55.445Z,13.03
2022-11-01T06:33:01.574Z,12.96
2022-11-01T06:38:08.726Z,12.93
2022-11-01T06:43:11.636Z,12.89
2022-11-01T06:48:14.688Z,12.82
2022-11-01T06:53:19.533Z,12.80
2022-11-01T06:58:22.505Z,12.85
2022-11-01T07:03:25.519Z,12.84
2022-11-01T07:08:30.012Z,12.83
2022-11-01T07:13:34.002Z,12.76
2022-11-01T07:18:37.013Z,12.76
2022-11-01T07:23:41.639Z,12.81
2022-11-01T07:28:44.716Z,12.88
2022-11-01T07:33:47.737Z,12.88
2022-11-01T07:38:52.310Z,12.89
2022-11-01T07:43:55.278Z,12.89
2022-11-01T07:49:00.446Z,12.93
2022-11-01T07:54:05.007Z,12.93
2022-11-01T07:59:09.519Z,12.93
2022-11-01T08:04:12.843Z,12.95
2022-11-01T08:09:23.055Z,13.00
2022-11-01T08:14:26.072Z,13.04
2022-11-01T08:19:28.991Z,13.21
2022-11-01T08:24:33.395Z,13.24
2022-11-01T08:29:36.564Z,13.38
2022-11-01T08:34:39.632Z,13.60
2022-11-01T08:39:44.164Z,13.76
2022-11-01T08:44:47.083Z,13.82
2022-11-01T08:49:50.080Z,13.92
2022-11-01T08:54:54.433Z,14.14
2022-11-01T08:59:57.594Z,14.35
2022-11-01T09:05:02.788Z,14.61
2022-11-01T09:10:08.808Z,14.72
2022-11-01T09:15:12.283Z,14.71
2022-11-01T09:20:15.588Z,14.87
2022-11-01T09:25:20.045Z,14.91
2022-11-01T09:30:23.063Z,15.03
2022-11-01T09:41:02.864Z,15.42
2022-11-01T09:46:07.685Z,15.41
2022-11-01T09:51:15.649Z,15.59
2022-11-01T09:56:24.845Z,15.70
2022-11-01T10:01:42.519Z,15.89
2022-11-01T10:06:52.355Z,15.92
2022-11-01T10:12:11.386Z,16.33
2022-11-01T10:17:15.972Z,16.44
2022-11-01T10:22:22.855Z,16.50
2022-11-01T10:27:36.172Z,16.56
2022-11-01T10:32:46.903Z,16.54
2022-11-01T10:38:11.196Z,16.64
2022-11-01T10:43:23.327Z,16.82
2022-11-01T10:48:33.062Z,16.90
2022-11-01T10:53:39.472Z,16.87
2022-11-01T10:58:50.569Z,16.89
2022-11-01T11:03:56.603Z,16.94
2022-11-01T11:08:59.953Z,17.01
2022-11-01T11:14:07.790Z,16.98
2022-11-01T11:19:19.492Z,17.13
2022-11-01T11:24:24.953Z,17.13
2022-11-01T11:29:37.619Z,17.24
2022-11-01T11:34:41.514Z,17.32
2022-11-01T11:40:02.385Z,17.33
2022-11-01T11:45:25.359Z,17.42
2022-11-01T11:50:33.237Z,17.51
2022-11-01T11:55:43.485Z,17.60
2022-11-01T12:00:50.997Z,17.62
2022-11-01T12:05:57.615Z,17.54
2022-11-01T12:11:00.965Z,17.63
2022-11-01T12:16:19.278Z,17.82
2022-11-01T12:21:28.755Z,17.89
2022-11-01T12:26:36.067Z,17.90
2022-11-01T12:31:44.438Z,17.99
2022-11-01T12:36:54.132Z,18.05
2022-11-01T12:42:00.640Z,18.05
2022-11-01T12:47:18.101Z,18.14
2022-11-01T12:52:28.225Z,18.23
2022-11-01T12:57:33.815Z,18.22
2022-11-01T13:03:02.328Z,18.21
2022-11-01T13:08:17.327Z,18.31
2022-11-01T13:13:28.300Z,18.36
2022-11-01T13:18:44.938Z,18.32
2022-11-01T13:23:55.040Z,18.42
2022-11-01T13:29:08.791Z,18.50
2022-11-01T13:34:23.904Z,18.57
2022-11-01T13:39:38.042Z,18.60
2022-11-01T13:44:45.824Z,18.73
2022-11-01T13:50:04.065Z,18.71
2022-11-01T13:55:17.900Z,18.76
2022-11-01T14:00:39.680Z,18.66
2022-11-01T14:05:45.963Z,18.73
2022-11-01T14:10:51.717Z,18.74
2022-11-01T14:16:24.908Z,18.74
2022-11-01T14:21:32.267Z,18.78
2022-11-01T14:26:49.781Z,18.72
2022-11-01T14:31:54.297Z,18.73
2022-11-01T14:37:05.315Z,18.65
2022-11-01T14:42:15.990Z,18.51
2022-11-01T14:47:28.670Z,18.42
2022-11-01T14:52:41.092Z,18.43
2022-11-01T14:57:45.346Z,18.42
2022-11-01T15:02:48.460Z,18.35
2022-11-01T15:07:55.915Z,18.03
2022-11-01T15:13:01.711Z,17.75
2022-11-01T15:18:09.268Z,17.62
2022-11-01T15:23:20.264Z,17.43
2022-11-01T15:28:26.450Z,17.23
2022-11-01T15:33:31.146Z,17.04
2022-11-01T15:38:37.686Z,16.95
2022-11-01T15:43:40.625Z,16.87
2022-11-01T15:48:46.494Z,16.76
2022-11-01T15:53:59.276Z,16.73
2022-11-01T15:59:04.227Z,16.60
2022-11-01T16:04:11.234Z,16.56
2022-11-01T16:09:32.707Z,16.50
2022-11-01T16:14:38.232Z,16.37
2022-11-01T16:19:45.250Z,16.35
2022-11-01T16:24:50.732Z,16.30
2022-11-01T16:29:53.964Z,16.25
2022-11-01T16:34:57.716Z,16.21
2022-11-01T16:40:23.607Z,16.15
2022-11-01T16:45:27.433Z,16.10
2022-11-01T16:50:31.610Z,16.04
2022-11-01T16:55:37.350Z,16.00
2022-11-01T17:00:40.605Z,15.95
2022-11-01T17:05:43.639Z,15.93
2022-11-01T17:10:48.736Z,15.84
2022-11-01T17:15:53.039Z,15.84
2022-11-01T17:20:58.230Z,15.80
2022-11-01T17:26:04.008Z,15.78
2022-11-01T17:31:07.289Z,15.74
2022-11-01T17:36:14.538Z,15.70
2022-11-01T17:41:21.124Z,15.67
2022-11-01T17:46:27.073Z,15.66
2022-11-01T17:51:30.410Z,15.57
2022-11-01T17:56:34.952Z,15.44
2022-11-01T18:01:39.512Z,15.43
2022-11-01T18:06:43.812Z,15.49
2022-11-01T18:11:54.055Z,15.46
2022-11-01T18:17:05.407Z,15.51
2022-11-01T18:22:19.860Z,15.48
2022-11-01T18:27:33.941Z,15.49
2022-11-01T18:32:41.465Z,15.47
2022-11-01T18:37:51.700Z,15.36
2022-11-01T18:42:56.421Z,15.33
2022-11-01T18:48:06.357Z,15.32
2022-11-01T18:53:14.514Z,15.33
2022-11-01T18:58:22.059Z,15.35
2022-11-01T19:03:26.968Z,15.27
2022-11-01T19:08:29.882Z,15.28
2022-11-01T19:13:36.221Z,15.28
2022-11-01T19:18:43.306Z,15.24
2022-11-01T19:23:50.415Z,15.21
2022-11-01T19:28:55.230Z,15.20
2022-11-01T19:34:00.315Z,15.15
2022-11-01T19:39:18.291Z,15.09
2022-11-01T19:44:25.021Z,15.02
2022-11-01T19:49:30.898Z,14.88
2022-11-01T19:54:37.434Z,14.91
2022-11-01T19:59:41.916Z,14.82
2022-11-01T20:04:45.331Z,14.83
2022-11-01T20:09:49.329Z,14.64
2022-11-01T20:14:53.816Z,14.13
2022-11-01T20:19:57.117Z,13.81
2022-11-01T20:25:00.782Z,13.64
2022-11-01T20:30:06.174Z,13.55
2022-11-01T20:35:10.977Z,13.42
2022-11-01T20:40:14.244Z,13.33
2022-11-01T20:45:18.599Z,13.13
2022-11-01T20:50:21.858Z,13.14
2022-11-01T20:55:24.974Z,13.12
2022-11-01T21:00:29.641Z,13.09
2022-11-01T21:05:36.719Z,13.03
2022-11-01T21:10:41.006Z,13.00
2022-11-01T21:15:46.842Z,12.99
2022-11-01T21:20:50.767Z,12.91
2022-11-01T21:25:57.897Z,12.87
2022-11-01T21:31:18.962Z,12.80
2022-11-01T21:36:34.848Z,12.77
2022-11-01T21:41:42.015Z,12.67
2022-11-01T21:46:49.756Z,12.61
2022-11-01T21:51:53.955Z,12.52
2022-11-01T21:56:57.967Z,12.46
2022-11-01T22:02:03.802Z,12.38
2022-11-01T22:07:09.168Z,12.34
2022-11-01T22:12:12.656Z,12.30
2022-11-01T22:17:18.492Z,12.24
2022-11-01T22:22:21.647Z,12.25
2022-11-01T22:27:26.830Z,12.16
2022-11-01T22:32:31.659Z,12.14
2022-11-01T22:37:36.625Z,12.14
2022-11-01T22:42:39.734Z,12.16
2022-11-01T22:47:45.961Z,12.15
2022-11-01T22:52:50.390Z,12.12
2022-11-01T22:57:58.574Z,12.12
2022-11-01T23:03:12.056Z,12.14
2022-11-01T23:08:24.713Z,12.19
2022-11-01T23:13:47.267Z,12.16
2022-11-01T23:18:52.462Z,12.23
2022-11-01T23:23:55.676Z,12.30
2022-11-01T23:28:59.905Z,12.38
2022-11-01T23:34:04.629Z,12.44
2022-11-01T23:39:11.954Z,12.43
2022-11-01T23:44:24.894Z,12.44
2022-11-01T23:49:32.804Z,12.48
2022-11-01T23:54:39.934Z,12.51
2022-11-01T23:59:42.987Z,12.50
